createdAt,value
2019-01-13T00:00:14.443Z,-0.25
2019-01-13T00:02:42.726Z,-0.05
2019-01-13T00:05:11.266Z,-0.11
2019-01-13T00:07:39.562Z,0.31
2019-01-13T00:10:07.847Z,-0.34
2019-01-13T00:12:36.122Z,-0.13
2019-01-13T00:15:07.063Z,0.19
2019-01-13T00:17:35.341Z,-0.16
2019-01-13T00:20:05.253Z,0.13
2019-01-13T00:22:33.564Z,-0.61
2019-01-13T00:25:01.837Z,0.17
2019-01-13T00:27:30.121Z,0.46
2019-01-13T00:29:58.443Z,0.18
2019-01-13T00:32:26.717Z,0.18
2019-01-13T00:34:54.999Z,-0.25
2019-01-13T00:37:23.318Z,0.16
2019-01-13T00:39:51.593Z,-0.09
2019-01-13T00:42:19.866Z,0.38
2019-01-13T00:44:48.189Z,0.73
2019-01-13T00:47:16.476Z,0.23
2019-01-13T00:49:44.748Z,0.00
2019-01-13T00:52:13.064Z,-0.14
2019-01-13T00:54:41.336Z,-0.11
2019-01-13T00:57:09.623Z,0.54
2019-01-13T00:59:37.944Z,0.07
2019-01-13T01:02:06.215Z,0.40
2019-01-13T01:04:34.493Z,0.16
2019-01-13T01:07:02.829Z,0.26
2019-01-13T01:09:31.110Z,0.40
2019-01-13T01:11:59.460Z,0.26
2019-01-13T01:14:27.762Z,0.39
2019-01-13T01:16:56.040Z,0.63
2019-01-13T01:19:24.310Z,0.79
2019-01-13T01:21:52.643Z,0.83
2019-01-13T01:24:20.917Z,0.53
2019-01-13T01:26:49.200Z,0.52
2019-01-13T01:29:17.525Z,0.81
2019-01-13T01:31:45.810Z,0.80
2019-01-13T01:34:14.155Z,0.77
2019-01-13T01:36:42.459Z,0.92
2019-01-13T01:39:10.743Z,0.86
2019-01-13T01:41:39.014Z,0.98
2019-01-13T01:44:07.327Z,1.02
2019-01-13T01:46:35.620Z,0.83
2019-01-13T01:49:03.900Z,0.79
2019-01-13T01:51:32.201Z,1.13
2019-01-13T01:54:00.553Z,0.95
2019-01-13T01:56:28.905Z,1.09
2019-01-13T01:58:57.216Z,0.67
2019-01-13T02:01:25.484Z,0.91
2019-01-13T02:03:53.779Z,0.26
2019-01-13T02:06:22.083Z,-0.36
2019-01-13T02:08:50.373Z,-0.29
2019-01-13T02:11:18.646Z,0.36
2019-01-13T02:13:46.957Z,0.32
2019-01-13T02:16:15.238Z,0.83
2019-01-13T02:18:43.518Z,0.64
2019-01-13T02:21:11.840Z,0.16
2019-01-13T02:23:40.105Z,0.10
2019-01-13T02:26:08.386Z,0.06
2019-01-13T02:28:36.773Z,0.23
2019-01-13T02:31:05.133Z,0.47
2019-01-13T02:33:33.399Z,0.82
2019-01-13T02:38:36.269Z,0.14
2019-01-13T02:41:04.612Z,0.25
2019-01-13T02:43:32.887Z,0.27
2019-01-13T02:46:01.202Z,0.52
2019-01-13T02:48:29.491Z,0.53
2019-01-13T02:50:57.771Z,-0.08
2019-01-13T02:53:26.096Z,0.14
2019-01-13T02:55:54.441Z,0.19
2019-01-13T02:58:22.786Z,0.21
2019-01-13T03:00:57.068Z,-0.20
2019-01-13T03:03:21.279Z,0.48
2019-01-13T03:05:49.555Z,0.26
2019-01-13T03:08:17.861Z,-0.11
2019-01-13T03:10:46.145Z,-0.25
2019-01-13T03:13:14.420Z,-0.20
2019-01-13T03:15:42.728Z,-0.01
2019-01-13T03:18:11.002Z,0.03
2019-01-13T03:20:39.305Z,-0.57
2019-01-13T03:23:07.615Z,-0.42
2019-01-13T03:25:35.961Z,0.23
2019-01-13T03:28:04.241Z,-0.53
2019-01-13T03:30:32.570Z,-0.29
2019-01-13T03:33:00.854Z,-0.16
2019-01-13T03:35:29.137Z,-0.74
2019-01-13T03:37:57.459Z,-0.35
2019-01-13T03:40:25.731Z,-0.46
2019-01-13T03:42:54.018Z,-0.27
2019-01-13T03:45:22.325Z,-0.25
2019-01-13T03:47:50.678Z,-0.65
2019-01-13T03:50:20.698Z,-0.31
2019-01-13T03:52:53.155Z,-0.66
2019-01-13T03:55:21.468Z,-0.69
2019-01-13T03:57:49.752Z,-0.92
2019-01-13T04:00:19.812Z,-0.07
2019-01-13T04:02:48.173Z,-0.14
2019-01-13T04:05:16.450Z,-0.54
2019-01-13T04:07:44.765Z,-0.37
2019-01-13T04:10:14.880Z,-0.51
2019-01-13T04:12:43.152Z,-0.03
2019-01-13T04:15:17.467Z,0.23
2019-01-13T04:17:45.742Z,-0.43
2019-01-13T04:20:14.015Z,0.03
2019-01-13T04:22:42.354Z,-0.49
2019-01-13T04:25:10.630Z,-0.78
2019-01-13T04:27:38.912Z,-0.31
2019-01-13T04:30:12.445Z,-0.44
2019-01-13T04:32:40.706Z,-0.16
2019-01-13T04:35:09.048Z,-0.17
2019-01-13T04:37:37.399Z,-0.09
2019-01-13T04:40:10.469Z,-0.47
2019-01-13T04:42:38.822Z,-0.30
2019-01-13T04:45:08.992Z,-0.48
2019-01-13T04:47:37.267Z,-0.38
2019-01-13T04:50:11.328Z,-0.50
2019-01-13T04:52:39.712Z,-0.66
2019-01-13T04:55:08.056Z,-0.22
2019-01-13T04:57:36.349Z,-0.70
2019-01-13T05:00:07.993Z,-0.59
2019-01-13T05:02:36.281Z,-0.16
2019-01-13T05:05:05.392Z,-0.46
2019-01-13T05:07:33.731Z,0.28
2019-01-13T05:10:02.025Z,-0.43
2019-01-13T05:12:30.297Z,-0.19
2019-01-13T05:14:58.611Z,0.45
2019-01-13T05:17:26.892Z,0.16
2019-01-13T05:19:55.154Z,0.15
2019-01-13T05:22:23.482Z,-0.04
2019-01-13T05:24:51.762Z,0.08
2019-01-13T05:27:20.044Z,0.05
2019-01-13T05:29:48.356Z,-0.34
2019-01-13T05:32:16.643Z,0.17
2019-01-13T05:34:44.915Z,-0.11
2019-01-13T05:37:13.235Z,0.19
2019-01-13T05:39:41.516Z,0.50
2019-01-13T05:42:09.793Z,0.54
2019-01-13T05:44:38.103Z,0.82
2019-01-13T05:47:06.380Z,0.35
2019-01-13T05:49:34.729Z,0.75
2019-01-13T05:52:03.205Z,0.83
2019-01-13T05:54:31.479Z,0.88
2019-01-13T05:56:59.757Z,0.52
2019-01-13T05:59:28.132Z,0.16
2019-01-13T06:01:56.479Z,0.54
2019-01-13T06:04:24.763Z,0.76
2019-01-13T06:06:53.085Z,0.97
2019-01-13T06:09:21.368Z,0.70
2019-01-13T06:11:49.717Z,0.89
2019-01-13T06:14:18.044Z,1.42
2019-01-13T06:16:46.322Z,1.11
2019-01-13T06:19:14.598Z,1.05
2019-01-13T06:21:42.907Z,0.78
2019-01-13T06:24:11.197Z,1.47
2019-01-13T06:26:39.489Z,1.04
2019-01-13T06:29:07.804Z,1.43
2019-01-13T06:31:36.077Z,0.91
2019-01-13T06:34:04.428Z,0.88
2019-01-13T06:36:32.751Z,0.61
2019-01-13T06:39:01.043Z,1.41
2019-01-13T06:41:29.320Z,1.47
2019-01-13T06:43:57.641Z,1.98
2019-01-13T06:46:25.988Z,1.54
2019-01-13T06:48:55.088Z,1.43
2019-01-13T06:51:23.336Z,0.78
2019-01-13T06:53:51.620Z,1.06
2019-01-13T06:56:19.907Z,0.73
2019-01-13T06:58:48.209Z,0.64
2019-01-13T07:01:16.491Z,0.75
2019-01-13T07:03:44.771Z,1.54
2019-01-13T07:06:13.086Z,1.42
2019-01-13T07:08:41.366Z,1.49
2019-01-13T07:11:09.662Z,1.80
2019-01-13T07:13:37.972Z,1.90
2019-01-13T07:16:06.268Z,1.99
2019-01-13T07:18:34.541Z,2.65
2019-01-13T07:21:02.861Z,1.32
2019-01-13T07:23:31.142Z,1.99
2019-01-13T07:25:59.413Z,1.82
2019-01-13T07:28:27.735Z,1.84
2019-01-13T07:30:56.005Z,1.60
2019-01-13T07:33:24.283Z,1.60
2019-01-13T07:35:52.586Z,1.54
2019-01-13T07:38:20.875Z,0.99
2019-01-13T07:40:49.176Z,1.79
2019-01-13T07:43:17.485Z,1.41
2019-01-13T07:45:45.775Z,1.35
2019-01-13T07:48:14.060Z,1.65
2019-01-13T07:50:42.442Z,1.28
2019-01-13T07:53:10.813Z,2.12
2019-01-13T07:55:39.162Z,1.57
2019-01-13T07:58:07.525Z,1.81
2019-01-13T08:00:35.820Z,1.80
2019-01-13T08:03:04.176Z,1.42
2019-01-13T08:05:33.414Z,1.35
2019-01-13T08:08:01.711Z,1.24
2019-01-13T08:10:30.003Z,1.53
2019-01-13T08:12:58.337Z,0.59
2019-01-13T08:15:26.622Z,1.03
2019-01-13T08:17:54.914Z,0.86
2019-01-13T08:20:26.240Z,1.32
2019-01-13T08:22:54.529Z,1.19
2019-01-13T08:25:22.989Z,1.43
2019-01-13T08:27:51.303Z,1.83
2019-01-13T08:30:20.728Z,1.29
2019-01-13T08:32:49.017Z,1.84
2019-01-13T08:35:17.340Z,1.51
2019-01-13T08:37:45.635Z,0.74
2019-01-13T08:40:15.956Z,0.98
2019-01-13T08:42:44.281Z,0.97
2019-01-13T08:45:12.565Z,1.44
2019-01-13T08:47:40.853Z,1.37
2019-01-13T08:50:19.541Z,1.29
2019-01-13T08:52:47.841Z,1.71
2019-01-13T08:55:16.440Z,2.09
2019-01-13T08:57:44.910Z,0.69
2019-01-13T09:00:19.329Z,1.48
2019-01-13T09:02:47.834Z,1.55
2019-01-13T09:05:16.416Z,1.84
2019-01-13T09:07:44.910Z,1.79
2019-01-13T09:10:18.411Z,1.59
2019-01-13T09:12:47.090Z,1.26
2019-01-13T09:15:20.462Z,2.08
2019-01-13T09:17:48.810Z,2.28
2019-01-13T09:20:26.861Z,1.86
2019-01-13T09:22:55.643Z,1.98
2019-01-13T09:25:23.925Z,1.60
2019-01-13T09:27:52.456Z,2.31
2019-01-13T09:30:25.536Z,2.45
2019-01-13T09:32:54.025Z,2.43
2019-01-13T09:35:22.531Z,2.10
2019-01-13T09:37:50.814Z,2.35
2019-01-13T09:40:24.049Z,2.18
2019-01-13T09:42:52.507Z,3.16
2019-01-13T09:45:21.200Z,2.83
2019-01-13T09:47:49.481Z,2.87
2019-01-13T09:50:23.249Z,2.97
2019-01-13T09:52:51.606Z,3.61
2019-01-13T09:55:21.495Z,2.81
2019-01-13T09:57:49.893Z,2.99
2019-01-13T10:00:21.144Z,2.70
2019-01-13T10:02:49.639Z,2.76
2019-01-13T10:05:17.952Z,2.63
2019-01-13T10:07:46.442Z,2.54
2019-01-13T10:10:14.926Z,3.05
2019-01-13T10:12:43.317Z,3.82
2019-01-13T10:15:22.746Z,3.71
2019-01-13T10:17:51.289Z,3.25
2019-01-13T10:20:19.776Z,2.45
2019-01-13T10:22:48.125Z,3.09
2019-01-13T10:25:16.701Z,2.87
2019-01-13T10:27:45.190Z,2.79
2019-01-13T10:30:22.753Z,2.88
2019-01-13T10:32:54.445Z,3.09
2019-01-13T10:35:21.577Z,4.08
2019-01-13T10:37:51.513Z,3.29
2019-01-13T10:40:25.077Z,3.45
2019-01-13T10:42:53.571Z,3.71
2019-01-13T10:45:22.094Z,3.67
2019-01-13T10:47:50.584Z,3.67
2019-01-13T10:50:21.831Z,4.42
2019-01-13T10:52:50.347Z,3.46
2019-01-13T10:55:18.774Z,2.96
2019-01-13T10:57:47.258Z,3.04
2019-01-13T11:00:21.511Z,3.68
2019-01-13T11:02:50.041Z,3.59
2019-01-13T11:05:18.494Z,3.77
2019-01-13T11:07:47.037Z,3.02
2019-01-13T11:10:17.020Z,3.63
2019-01-13T11:12:45.518Z,3.94
2019-01-13T11:15:21.427Z,4.08
2019-01-13T11:17:46.356Z,3.12
2019-01-13T11:20:17.546Z,3.65
2019-01-13T11:22:46.005Z,3.74
2019-01-13T11:25:14.803Z,3.34
2019-01-13T11:27:43.304Z,3.81
2019-01-13T11:30:15.029Z,3.54
2019-01-13T11:32:43.520Z,3.72
2019-01-13T11:35:13.102Z,3.65
2019-01-13T11:37:41.629Z,3.99
2019-01-13T11:40:13.081Z,4.09
2019-01-13T11:42:41.572Z,3.90
2019-01-13T11:45:10.624Z,3.57
2019-01-13T11:47:39.121Z,3.62
2019-01-13T11:50:12.708Z,3.81
2019-01-13T11:52:41.249Z,4.05
2019-01-13T11:55:11.850Z,4.10
2019-01-13T11:57:40.342Z,3.79
2019-01-13T12:00:11.978Z,3.46
2019-01-13T12:02:40.467Z,2.71
2019-01-13T12:05:08.956Z,2.68
2019-01-13T12:07:37.483Z,2.59
2019-01-13T12:10:09.098Z,2.84
2019-01-13T12:12:37.587Z,3.34
2019-01-13T12:15:09.242Z,3.96
2019-01-13T12:17:37.740Z,3.07
2019-01-13T12:20:09.343Z,2.67
2019-01-13T12:22:37.882Z,2.56
2019-01-13T12:25:09.279Z,2.63
2019-01-13T12:27:37.767Z,2.62
2019-01-13T12:30:12.594Z,2.78
2019-01-13T12:32:41.081Z,2.27
2019-01-13T12:35:09.567Z,2.20
2019-01-13T12:37:38.097Z,2.51
2019-01-13T12:40:12.696Z,2.41
2019-01-13T12:42:41.198Z,2.74
2019-01-13T12:45:12.518Z,3.14
2019-01-13T12:47:41.007Z,2.89
2019-01-13T12:50:12.656Z,3.23
2019-01-13T12:52:41.179Z,3.26
2019-01-13T12:55:09.680Z,3.17
2019-01-13T12:57:38.172Z,3.23
2019-01-13T13:00:10.161Z,3.08
2019-01-13T13:02:38.651Z,3.26
2019-01-13T13:05:09.937Z,3.10
2019-01-13T13:07:38.493Z,3.52
2019-01-13T13:10:15.854Z,3.82
2019-01-13T13:12:44.373Z,3.79
2019-01-13T13:15:12.864Z,3.29
2019-01-13T13:17:41.356Z,3.70
2019-01-13T13:20:16.284Z,3.66
2019-01-13T13:22:44.789Z,3.90
2019-01-13T13:25:13.777Z,3.80
2019-01-13T13:27:42.311Z,3.89
2019-01-13T13:30:22.184Z,4.05
2019-01-13T13:32:50.741Z,3.62
2019-01-13T13:35:19.438Z,3.73
2019-01-13T13:37:48.029Z,3.76
2019-01-13T13:40:19.145Z,3.93
2019-01-13T13:42:49.185Z,2.97
2019-01-13T13:45:17.685Z,3.01
2019-01-13T13:47:46.211Z,2.85
2019-01-13T13:50:17.097Z,3.10
2019-01-13T13:52:45.594Z,2.74
2019-01-13T13:55:14.113Z,3.17
2019-01-13T13:57:42.595Z,3.34
2019-01-13T14:00:25.888Z,3.09
2019-01-13T14:02:54.372Z,2.97
2019-01-13T14:05:22.859Z,3.05
2019-01-13T14:07:52.978Z,3.15
2019-01-13T14:10:26.848Z,3.40
2019-01-13T14:12:55.344Z,3.11
2019-01-13T14:15:23.872Z,3.46
2019-01-13T14:17:52.351Z,3.32
2019-01-13T14:20:20.846Z,3.45
2019-01-13T14:22:49.366Z,3.31
2019-01-13T14:25:17.851Z,3.21
2019-01-13T14:27:46.352Z,3.17
2019-01-13T14:30:19.556Z,2.69
2019-01-13T14:32:48.042Z,3.12
2019-01-13T14:35:16.534Z,2.64
2019-01-13T14:37:45.048Z,2.71
2019-01-13T14:40:20.296Z,2.49
2019-01-13T14:42:48.906Z,2.14
2019-01-13T14:45:19.262Z,2.26
2019-01-13T14:47:47.743Z,2.75
2019-01-13T14:50:18.240Z,3.11
2019-01-13T14:52:47.028Z,3.30
2019-01-13T14:55:15.634Z,3.11
2019-01-13T14:57:45.700Z,3.67
2019-01-13T15:00:19.256Z,3.53
2019-01-13T15:02:47.739Z,3.43
2019-01-13T15:05:16.240Z,3.52
2019-01-13T15:07:45.367Z,3.51
2019-01-13T15:10:21.550Z,3.50
2019-01-13T15:12:50.043Z,3.63
2019-01-13T15:15:18.586Z,3.83
2019-01-13T15:17:47.095Z,3.73
2019-01-13T15:20:19.964Z,4.01
2019-01-13T15:22:48.708Z,3.78
2019-01-13T15:25:20.068Z,4.01
2019-01-13T15:27:48.558Z,3.38
2019-01-13T15:30:20.189Z,2.12
2019-01-13T15:32:48.667Z,2.63
2019-01-13T15:35:17.140Z,3.29
2019-01-13T15:37:45.661Z,2.88
2019-01-13T15:40:16.713Z,2.71
2019-01-13T15:42:45.200Z,3.05
2019-01-13T15:45:14.929Z,3.56
2019-01-13T15:47:43.421Z,3.11
2019-01-13T15:50:14.875Z,3.27
2019-01-13T15:52:43.523Z,2.62
2019-01-13T15:55:12.011Z,2.57
2019-01-13T15:57:40.502Z,2.44
2019-01-13T16:00:17.821Z,2.62
2019-01-13T16:02:46.307Z,2.25
2019-01-13T16:05:14.796Z,2.37
2019-01-13T16:07:43.320Z,2.81
2019-01-13T16:10:14.419Z,2.51
2019-01-13T16:12:44.032Z,2.11
2019-01-13T16:15:13.248Z,2.74
2019-01-13T16:17:41.743Z,3.26
2019-01-13T16:20:24.625Z,3.38
2019-01-13T16:22:53.120Z,3.44
2019-01-13T16:25:21.621Z,3.62
2019-01-13T16:27:50.160Z,3.71
2019-01-13T16:30:21.317Z,3.65
2019-01-13T16:32:49.818Z,3.72
2019-01-13T16:35:18.365Z,3.65
2019-01-13T16:37:46.886Z,3.77
2019-01-13T16:40:20.253Z,3.83
2019-01-13T16:42:48.795Z,3.53
2019-01-13T16:45:17.985Z,3.52
2019-01-13T16:47:47.184Z,3.62
2019-01-13T16:50:20.458Z,3.81
2019-01-13T16:52:50.649Z,3.79
2019-01-13T16:55:19.139Z,3.73
2019-01-13T16:57:50.378Z,3.72
2019-01-13T17:00:27.206Z,3.75
2019-01-13T17:02:55.848Z,3.83
2019-01-13T17:05:24.735Z,3.63
2019-01-13T17:07:53.258Z,3.72
2019-01-13T17:10:23.311Z,3.83
2019-01-13T17:12:53.325Z,3.22
2019-01-13T17:15:24.218Z,3.64
2019-01-13T17:17:53.234Z,3.56
2019-01-13T17:20:23.187Z,3.77
2019-01-13T17:22:51.683Z,3.68
2019-01-13T17:25:22.123Z,3.58
2019-01-13T17:27:50.646Z,3.53
2019-01-13T17:30:25.262Z,3.09
2019-01-13T17:32:53.808Z,3.10
2019-01-13T17:35:22.298Z,3.28
2019-01-13T17:37:51.086Z,3.26
2019-01-13T17:40:21.518Z,3.05
2019-01-13T17:42:50.024Z,2.78
2019-01-13T17:45:21.071Z,2.62
2019-01-13T17:47:49.794Z,3.01
2019-01-13T17:50:20.085Z,3.41
2019-01-13T17:52:48.577Z,3.67
2019-01-13T17:55:18.909Z,3.62
2019-01-13T17:57:47.401Z,3.62
2019-01-13T18:00:28.155Z,3.60
2019-01-13T18:02:59.343Z,3.53
2019-01-13T18:05:27.839Z,3.25
2019-01-13T18:07:56.438Z,3.11
2019-01-13T18:10:24.923Z,2.44
2019-01-13T18:12:53.406Z,2.88
2019-01-13T18:15:21.932Z,2.40
2019-01-13T18:17:50.420Z,2.34
2019-01-13T18:20:22.022Z,2.47
2019-01-13T18:22:50.548Z,2.12
2019-01-13T18:25:19.027Z,2.74
2019-01-13T18:27:47.501Z,3.25
2019-01-13T18:30:18.779Z,3.25
2019-01-13T18:32:47.267Z,2.83
2019-01-13T18:35:17.547Z,2.82
2019-01-13T18:37:46.069Z,3.15
2019-01-13T18:40:17.117Z,2.80
2019-01-13T18:42:45.602Z,3.04
2019-01-13T18:45:14.332Z,3.22
2019-01-13T18:47:42.823Z,3.15
2019-01-13T18:50:20.399Z,2.61
2019-01-13T18:52:55.032Z,2.35
2019-01-13T18:55:23.518Z,3.00
2019-01-13T18:57:52.039Z,2.48
2019-01-13T19:00:24.599Z,2.49
2019-01-13T19:02:53.090Z,2.24
2019-01-13T19:05:24.698Z,2.49
2019-01-13T19:07:53.186Z,2.99
2019-01-13T19:10:36.815Z,2.57
2019-01-13T19:13:11.361Z,3.25
2019-01-13T19:15:39.859Z,3.69
2019-01-13T19:18:08.404Z,3.79
2019-01-13T19:20:36.884Z,3.70
2019-01-13T19:23:05.572Z,3.28
2019-01-13T19:25:34.113Z,3.32
2019-01-13T19:28:05.623Z,3.46
2019-01-13T19:30:34.112Z,3.47
2019-01-13T19:33:02.671Z,3.00
2019-01-13T19:35:34.304Z,3.60
2019-01-13T19:38:02.843Z,2.84
2019-01-13T19:40:31.392Z,3.00
2019-01-13T19:42:59.880Z,2.67
2019-01-13T19:45:28.405Z,3.10
2019-01-13T19:47:59.947Z,2.30
2019-01-13T19:50:28.438Z,2.75
2019-01-13T19:52:58.488Z,3.30
2019-01-13T19:55:27.025Z,2.82
2019-01-13T19:57:55.513Z,2.87
2019-01-13T20:00:29.931Z,2.69
2019-01-13T20:02:58.440Z,3.37
2019-01-13T20:05:26.935Z,3.60
2019-01-13T20:07:56.296Z,2.34
2019-01-13T20:10:24.814Z,3.11
2019-01-13T20:12:53.303Z,3.41
2019-01-13T20:15:22.303Z,3.49
2019-01-13T20:17:50.843Z,2.84
2019-01-13T20:20:20.431Z,2.37
2019-01-13T20:22:49.033Z,2.50
2019-01-13T20:25:18.698Z,2.84
2019-01-13T20:27:47.184Z,2.83
2019-01-13T20:30:21.013Z,3.31
2019-01-13T20:32:49.566Z,3.53
2019-01-13T20:35:19.264Z,2.87
2019-01-13T20:37:48.043Z,2.34
2019-01-13T20:40:20.045Z,2.60
2019-01-13T20:42:48.544Z,3.13
2019-01-13T20:45:25.758Z,2.22
2019-01-13T20:47:54.241Z,2.20
2019-01-13T20:50:22.743Z,1.09
2019-01-13T20:52:51.276Z,0.63
2019-01-13T20:55:19.783Z,1.34
2019-01-13T20:57:48.279Z,2.10
2019-01-13T21:00:22.349Z,2.56
2019-01-13T21:02:50.942Z,2.46
2019-01-13T21:05:26.287Z,2.65
2019-01-13T21:07:49.682Z,2.48
2019-01-13T21:10:19.533Z,2.55
2019-01-13T21:12:48.031Z,2.52
2019-01-13T21:15:19.436Z,1.87
2019-01-13T21:17:47.930Z,2.41
2019-01-13T21:20:16.427Z,2.52
2019-01-13T21:22:44.957Z,2.35
2019-01-13T21:25:16.217Z,2.62
2019-01-13T21:27:45.212Z,2.31
2019-01-13T21:30:27.478Z,2.54
2019-01-13T21:32:55.995Z,2.09
2019-01-13T21:35:24.403Z,2.43
2019-01-13T21:37:52.940Z,2.36
2019-01-13T21:40:21.294Z,2.56
2019-01-13T21:42:49.578Z,2.29
2019-01-13T21:45:19.820Z,2.53
2019-01-13T21:47:48.311Z,2.07
2019-01-13T21:50:19.368Z,2.12
2019-01-13T21:52:47.900Z,2.26
2019-01-13T21:55:17.827Z,2.00
2019-01-13T21:57:46.323Z,1.49
2019-01-13T22:00:19.996Z,1.68
2019-01-13T22:02:48.491Z,1.52
2019-01-13T22:05:16.972Z,2.02
2019-01-13T22:07:45.454Z,1.89
2019-01-13T22:10:16.151Z,2.22
2019-01-13T22:12:45.356Z,1.64
2019-01-13T22:15:18.184Z,1.85
2019-01-13T22:17:46.541Z,1.47
2019-01-13T22:20:19.302Z,1.04
2019-01-13T22:22:47.797Z,0.65
2019-01-13T22:25:16.238Z,1.18
2019-01-13T22:27:44.523Z,1.51
2019-01-13T22:30:20.956Z,1.71
2019-01-13T22:32:49.247Z,1.87
2019-01-13T22:35:17.537Z,1.80
2019-01-13T22:37:45.934Z,2.03
2019-01-13T22:40:15.766Z,1.74
2019-01-13T22:42:44.060Z,1.19
2019-01-13T22:45:17.331Z,1.78
2019-01-13T22:47:45.863Z,1.55
2019-01-13T22:50:15.471Z,1.22
2019-01-13T22:52:43.797Z,1.72
2019-01-13T22:55:12.116Z,1.47
2019-01-13T22:57:40.399Z,1.75
2019-01-13T23:00:34.348Z,0.62
2019-01-13T23:03:02.812Z,1.31
2019-01-13T23:05:31.178Z,1.12
2019-01-13T23:07:59.503Z,1.09
2019-01-13T23:10:27.911Z,1.66
2019-01-13T23:12:56.148Z,1.08
2019-01-13T23:15:25.323Z,0.22
2019-01-13T23:17:53.608Z,0.84
2019-01-13T23:20:21.891Z,0.20
2019-01-13T23:22:50.225Z,0.52
2019-01-13T23:25:18.503Z,1.01
2019-01-13T23:27:46.867Z,0.90
2019-01-13T23:30:15.191Z,0.06
2019-01-13T23:32:43.473Z,0.94
2019-01-13T23:35:11.770Z,0.66
2019-01-13T23:37:40.164Z,0.87
2019-01-13T23:40:08.905Z,0.51
2019-01-13T23:42:37.262Z,0.52
2019-01-13T23:45:07.890Z,0.19
2019-01-13T23:47:36.173Z,0.73
2019-01-13T23:50:05.990Z,0.90
2019-01-13T23:52:34.307Z,1.25
2019-01-13T23:55:02.664Z,1.06
2019-01-13T23:57:30.946Z,0.84
2019-01-13T23:59:59.262Z,0.27
